createdAt,value
2016-12-05T00:00:47.042Z,0
2016-12-05T00:01:56.567Z,0
2016-12-05T00:03:06.077Z,0
2016-12-05T00:04:15.566Z,0
2016-12-05T00:05:25.345Z,0
2016-12-05T00:06:35.131Z,0
2016-12-05T00:07:44.606Z,0
2016-12-05T00:08:54.466Z,0
2016-12-05T00:10:03.951Z,0
2016-12-05T00:11:13.736Z,0
2016-12-05T00:12:23.559Z,0
2016-12-05T00:13:33.130Z,0
2016-12-05T00:14:42.623Z,0
2016-12-05T00:15:52.425Z,0
2016-12-05T00:17:02.189Z,0
2016-12-05T00:18:11.960Z,0
2016-12-05T00:19:21.761Z,0
2016-12-05T00:20:31.550Z,0
2016-12-05T00:21:41.373Z,0
2016-12-05T00:22:51.211Z,0
2016-12-05T00:24:00.895Z,0
2016-12-05T00:25:10.699Z,0
2016-12-05T00:26:20.743Z,0
2016-12-05T00:27:30.220Z,0
2016-12-05T00:28:39.428Z,0
2016-12-05T00:29:48.897Z,0
2016-12-05T00:30:57.748Z,0
2016-12-05T00:32:06.607Z,0
2016-12-05T00:33:16.491Z,0
2016-12-05T00:34:26.311Z,0
2016-12-05T00:35:35.812Z,0
2016-12-05T00:36:45.707Z,0
2016-12-05T00:37:55.568Z,0
2016-12-05T00:39:05.352Z,0
2016-12-05T00:40:14.823Z,0
2016-12-05T00:41:24.602Z,0
2016-12-05T00:42:34.386Z,0
2016-12-05T00:43:44.176Z,0
2016-12-05T00:44:53.714Z,0
2016-12-05T00:46:03.505Z,0
2016-12-05T00:47:12.746Z,0
2016-12-05T00:48:22.213Z,0
2016-12-05T00:49:31.715Z,0
2016-12-05T00:50:41.221Z,0
2016-12-05T00:51:50.699Z,0
2016-12-05T00:53:00.725Z,0
2016-12-05T00:54:09.877Z,0
2016-12-05T00:55:19.719Z,0
2016-12-05T00:56:29.188Z,0
2016-12-05T00:57:38.366Z,0
2016-12-05T00:58:48.141Z,0
2016-12-05T00:59:57.939Z,0
2016-12-05T01:01:07.091Z,0
2016-12-05T01:02:16.909Z,0
2016-12-05T01:03:26.699Z,0
2016-12-05T01:04:36.544Z,0
2016-12-05T01:05:46.442Z,0
2016-12-05T01:06:56.246Z,0
2016-12-05T01:08:06.051Z,0
2016-12-05T01:09:15.829Z,0
2016-12-05T01:10:25.634Z,0
2016-12-05T01:11:35.119Z,0
2016-12-05T01:12:44.291Z,0
2016-12-05T01:13:53.789Z,0
2016-12-05T01:15:03.678Z,0
2016-12-05T01:16:13.533Z,0
2016-12-05T01:17:23.317Z,0
2016-12-05T01:18:33.104Z,0
2016-12-05T01:19:42.296Z,0
2016-12-05T01:20:52.116Z,0
2016-12-05T01:22:01.919Z,0
2016-12-05T01:23:11.714Z,0
2016-12-05T01:24:21.225Z,0
2016-12-05T01:25:31.136Z,0
2016-12-05T01:26:40.914Z,0
2016-12-05T01:27:50.389Z,0
2016-12-05T01:29:00.159Z,0
2016-12-05T01:30:09.643Z,0
2016-12-05T01:31:19.275Z,0
2016-12-05T01:32:29.052Z,0
2016-12-05T01:33:38.802Z,0
2016-12-05T01:34:48.641Z,0
2016-12-05T01:35:58.438Z,0
2016-12-05T01:37:07.606Z,0
2016-12-05T01:38:17.397Z,0
2016-12-05T01:39:26.553Z,0
2016-12-05T01:40:36.401Z,0
2016-12-05T01:41:46.176Z,0
2016-12-05T01:42:55.953Z,0
2016-12-05T01:44:05.770Z,0
2016-12-05T01:45:15.592Z,0
2016-12-05T01:46:25.442Z,0
2016-12-05T01:47:35.259Z,0
2016-12-05T01:48:45.040Z,0
2016-12-05T01:49:54.194Z,0
2016-12-05T01:51:03.379Z,0
2016-12-05T01:52:12.892Z,0
2016-12-05T01:53:22.684Z,0
2016-12-05T01:54:32.479Z,0
2016-12-05T01:55:41.675Z,0
2016-12-05T01:56:51.491Z,0
2016-12-05T01:58:01.292Z,0
2016-12-05T01:59:10.765Z,0
2016-12-05T02:00:20.020Z,0
2016-12-05T02:01:29.535Z,0
2016-12-05T02:02:39.153Z,0
2016-12-05T02:03:48.986Z,0
2016-12-05T02:04:58.832Z,0
2016-12-05T02:06:08.615Z,0
2016-12-05T02:07:18.454Z,0
2016-12-05T02:08:28.213Z,0
2016-12-05T02:09:38.016Z,0
2016-12-05T02:10:47.795Z,0
2016-12-05T02:11:57.308Z,0
2016-12-05T02:13:07.092Z,0
2016-12-05T02:14:17.199Z,0
2016-12-05T02:15:27.203Z,0
2016-12-05T02:16:36.359Z,0
2016-12-05T02:17:45.924Z,0
2016-12-05T02:18:55.702Z,0
2016-12-05T02:20:05.577Z,0
2016-12-05T02:21:15.063Z,0
2016-12-05T02:22:24.532Z,0
2016-12-05T02:23:34.309Z,0
2016-12-05T02:24:43.812Z,0
2016-12-05T02:25:52.992Z,0
2016-12-05T02:27:02.809Z,0
2016-12-05T02:28:12.451Z,0
2016-12-05T02:29:21.917Z,0
2016-12-05T02:30:31.698Z,0
2016-12-05T02:31:40.890Z,0
2016-12-05T02:32:50.664Z,0
2016-12-05T02:34:00.471Z,0
2016-12-05T02:35:10.267Z,0
2016-12-05T02:36:20.038Z,0
2016-12-05T02:37:29.815Z,0
2016-12-05T02:38:39.073Z,0
2016-12-05T02:39:48.534Z,0
2016-12-05T02:40:58.391Z,0
2016-12-05T02:42:08.181Z,0
2016-12-05T02:43:17.416Z,0
2016-12-05T02:44:27.198Z,0
2016-12-05T02:45:36.350Z,0
2016-12-05T02:46:46.123Z,0
2016-12-05T02:47:55.290Z,0
2016-12-05T02:49:05.135Z,0
2016-12-05T02:50:14.905Z,0
2016-12-05T02:51:24.701Z,0
2016-12-05T02:52:34.184Z,0
2016-12-05T02:53:44.082Z,0
2016-12-05T02:54:53.876Z,0
2016-12-05T02:56:03.121Z,0
2016-12-05T02:57:12.902Z,0
2016-12-05T02:58:22.738Z,0
2016-12-05T02:59:32.533Z,0
2016-12-05T03:00:42.312Z,0
2016-12-05T03:01:52.092Z,0
2016-12-05T03:03:01.877Z,0
2016-12-05T03:04:11.698Z,0
2016-12-05T03:05:21.505Z,0
2016-12-05T03:06:31.282Z,0
2016-12-05T03:07:40.751Z,0
2016-12-05T03:08:50.528Z,0
2016-12-05T03:10:00.376Z,0
2016-12-05T03:11:10.229Z,0
2016-12-05T03:12:19.993Z,0
2016-12-05T03:13:29.859Z,0
2016-12-05T03:14:39.705Z,0
2016-12-05T03:15:49.570Z,0
2016-12-05T03:16:59.336Z,0
2016-12-05T03:18:08.506Z,0
2016-12-05T03:19:18.303Z,0
2016-12-05T03:20:27.772Z,0
2016-12-05T03:21:37.545Z,0
2016-12-05T03:22:47.349Z,0
2016-12-05T03:23:57.119Z,0
2016-12-05T03:25:06.912Z,0
2016-12-05T03:26:16.409Z,0
2016-12-05T03:27:26.208Z,0
2016-12-05T03:28:36.005Z,0
2016-12-05T03:29:45.801Z,0
2016-12-05T03:30:55.606Z,0
2016-12-05T03:32:05.373Z,0
2016-12-05T03:33:14.838Z,0
2016-12-05T03:34:24.653Z,0
2016-12-05T03:35:34.448Z,0
2016-12-05T03:36:44.051Z,0
2016-12-05T03:37:52.918Z,0
2016-12-05T03:39:02.722Z,0
2016-12-05T03:40:12.183Z,0
2016-12-05T03:41:21.707Z,0
2016-12-05T03:42:31.172Z,0
2016-12-05T03:43:40.652Z,0
2016-12-05T03:44:50.473Z,0
2016-12-05T03:45:59.931Z,0
2016-12-05T03:47:09.696Z,0
2016-12-05T03:48:19.466Z,0
2016-12-05T03:49:29.304Z,0
2016-12-05T03:50:39.069Z,0
2016-12-05T03:51:48.262Z,0
2016-12-05T03:52:58.061Z,0
2016-12-05T03:54:07.856Z,0
2016-12-05T03:55:17.677Z,0
2016-12-05T03:56:27.469Z,0
2016-12-05T03:57:37.250Z,0
2016-12-05T03:58:47.025Z,0
2016-12-05T03:59:56.804Z,0
2016-12-05T04:01:06.048Z,0
2016-12-05T04:02:15.830Z,0
2016-12-05T04:03:25.628Z,0
2016-12-05T04:04:35.121Z,0
2016-12-05T04:05:45.127Z,0
2016-12-05T04:06:54.944Z,0
2016-12-05T04:08:04.730Z,0
2016-12-05T04:09:14.513Z,0
2016-12-05T04:10:24.064Z,0
2016-12-05T04:11:33.577Z,0
2016-12-05T04:12:43.361Z,0
2016-12-05T04:13:53.012Z,0
2016-12-05T04:15:02.196Z,0
2016-12-05T04:16:11.655Z,0
2016-12-05T04:17:20.871Z,0
2016-12-05T04:18:30.674Z,0
2016-12-05T04:19:40.154Z,0
2016-12-05T04:20:49.937Z,0
2016-12-05T04:21:59.711Z,0
2016-12-05T04:23:09.241Z,0
2016-12-05T04:24:19.020Z,0
2016-12-05T04:25:28.496Z,0
2016-12-05T04:26:38.265Z,0
2016-12-05T04:27:48.034Z,0
2016-12-05T04:28:57.500Z,0
2016-12-05T04:30:07.293Z,0
2016-12-05T04:31:16.771Z,0
2016-12-05T04:32:26.576Z,0
2016-12-05T04:33:35.737Z,0
2016-12-05T04:34:45.670Z,0
2016-12-05T04:35:55.487Z,0
2016-12-05T04:37:04.972Z,0
2016-12-05T04:38:14.441Z,0
2016-12-05T04:39:24.242Z,0
2016-12-05T04:40:33.717Z,0
2016-12-05T04:41:43.180Z,0
2016-12-05T04:42:52.811Z,0
2016-12-05T04:44:02.573Z,0
2016-12-05T04:45:12.050Z,0
2016-12-05T04:46:21.833Z,0
2016-12-05T04:47:31.335Z,0
2016-12-05T04:48:41.119Z,0
2016-12-05T04:49:50.602Z,0
2016-12-05T04:51:00.438Z,0
2016-12-05T04:52:10.030Z,0
2016-12-05T04:53:19.826Z,0
2016-12-05T04:54:29.295Z,0
2016-12-05T04:55:38.474Z,0
2016-12-05T04:56:48.240Z,0
2016-12-05T04:57:57.714Z,0
2016-12-05T04:59:07.169Z,0
2016-12-05T05:00:16.950Z,0
2016-12-05T05:01:26.766Z,0
2016-12-05T05:02:36.559Z,0
2016-12-05T05:03:46.342Z,0
2016-12-05T05:04:55.803Z,0
2016-12-05T05:06:05.637Z,0
2016-12-05T05:07:14.508Z,0
2016-12-05T05:08:24.346Z,0
2016-12-05T05:09:34.151Z,0
2016-12-05T05:10:43.820Z,0
2016-12-05T05:11:52.975Z,0
2016-12-05T05:13:02.483Z,0
2016-12-05T05:14:12.293Z,0
2016-12-05T05:15:21.464Z,0
2016-12-05T05:16:31.345Z,0
2016-12-05T05:17:40.859Z,0
2016-12-05T05:18:50.676Z,0
2016-12-05T05:20:00.544Z,0
2016-12-05T05:21:09.726Z,0
2016-12-05T05:22:19.539Z,0
2016-12-05T05:23:29.044Z,0
2016-12-05T05:24:38.816Z,0
2016-12-05T05:25:48.330Z,0
2016-12-05T05:26:57.880Z,0
2016-12-05T05:28:07.708Z,0
2016-12-05T05:29:17.171Z,0
2016-12-05T05:30:26.693Z,0
2016-12-05T05:31:36.160Z,0
2016-12-05T05:32:45.740Z,0
2016-12-05T05:33:55.584Z,0
2016-12-05T05:35:05.414Z,0
2016-12-05T05:36:14.940Z,0
2016-12-05T05:37:24.903Z,0
2016-12-05T05:38:34.694Z,0
2016-12-05T05:39:44.183Z,0
2016-12-05T05:40:53.952Z,0
2016-12-05T05:42:03.143Z,0
2016-12-05T05:43:12.651Z,0
2016-12-05T05:44:22.116Z,0
2016-12-05T05:45:31.317Z,0
2016-12-05T05:46:40.795Z,0
2016-12-05T05:47:50.571Z,0
2016-12-05T05:49:00.346Z,0
2016-12-05T05:50:10.116Z,0
2016-12-05T05:51:19.579Z,0
2016-12-05T05:52:29.044Z,0
2016-12-05T05:53:38.516Z,0
2016-12-05T05:54:48.072Z,0
2016-12-05T05:55:57.593Z,0
2016-12-05T05:57:07.377Z,0
2016-12-05T05:58:16.846Z,0
2016-12-05T05:59:26.024Z,0
2016-12-05T06:00:35.801Z,0
2016-12-05T06:01:45.801Z,0
2016-12-05T06:02:55.654Z,0
2016-12-05T06:04:05.451Z,0
2016-12-05T06:05:14.615Z,0
2016-12-05T06:06:24.430Z,0
2016-12-05T06:07:34.207Z,0
2016-12-05T06:08:43.670Z,0
2016-12-05T06:09:53.470Z,0
2016-12-05T06:11:03.276Z,0
2016-12-05T06:12:12.756Z,0
2016-12-05T06:13:22.238Z,0
2016-12-05T06:14:31.422Z,0
2016-12-05T06:15:41.199Z,0
2016-12-05T06:16:50.705Z,0
2016-12-05T06:18:00.493Z,0
2016-12-05T06:19:10.032Z,0
2016-12-05T06:20:19.856Z,0
2016-12-05T06:21:29.479Z,0
2016-12-05T06:22:38.648Z,0
2016-12-05T06:23:48.108Z,0
2016-12-05T06:24:57.710Z,0
2016-12-05T06:26:07.484Z,0
2016-12-05T06:27:16.956Z,4
2016-12-05T06:28:26.423Z,4
2016-12-05T06:29:35.898Z,0
2016-12-05T06:30:45.375Z,4
2016-12-05T06:31:54.639Z,4
2016-12-05T06:33:04.424Z,4
2016-12-05T06:34:14.244Z,4
2016-12-05T06:35:24.047Z,8
2016-12-05T06:36:33.512Z,8
2016-12-05T06:37:42.766Z,8
2016-12-05T06:38:52.238Z,8
2016-12-05T06:40:01.746Z,12
2016-12-05T06:41:11.527Z,12
2016-12-05T06:42:21.015Z,16
2016-12-05T06:43:30.827Z,20
2016-12-05T06:44:40.287Z,24
2016-12-05T06:45:49.806Z,32
2016-12-05T06:46:59.585Z,32
2016-12-05T06:48:09.409Z,40
2016-12-05T06:49:18.890Z,48
2016-12-05T06:50:28.357Z,56
2016-12-05T06:51:38.130Z,68
2016-12-05T06:52:47.975Z,76
2016-12-05T06:53:57.736Z,92
2016-12-05T06:55:07.505Z,104
2016-12-05T06:56:17.020Z,124
2016-12-05T06:57:26.931Z,144
2016-12-05T06:58:36.403Z,164
2016-12-05T06:59:46.175Z,180
2016-12-05T07:00:55.686Z,200
2016-12-05T07:02:05.557Z,220
2016-12-05T07:03:15.329Z,244
2016-12-05T07:04:25.138Z,256
2016-12-05T07:05:34.656Z,276
2016-12-05T07:06:44.477Z,320
2016-12-05T07:07:54.370Z,344
2016-12-05T07:09:03.861Z,392
2016-12-05T07:10:13.324Z,424
2016-12-05T07:11:22.991Z,452
2016-12-05T07:12:32.792Z,480
2016-12-05T07:13:42.539Z,508
2016-12-05T07:14:52.415Z,536
2016-12-05T07:16:02.429Z,588
2016-12-05T07:17:11.873Z,640
2016-12-05T07:18:21.346Z,672
2016-12-05T07:19:30.832Z,696
2016-12-05T07:20:40.646Z,736
2016-12-05T07:21:50.445Z,792
2016-12-05T07:23:00.232Z,848
2016-12-05T07:24:10.004Z,908
2016-12-05T07:25:19.837Z,984
2016-12-05T07:26:29.329Z,1092
2016-12-05T07:27:39.207Z,1204
2016-12-05T07:28:49.002Z,1324
2016-12-05T07:29:58.778Z,1380
2016-12-05T07:31:08.617Z,1444
2016-12-05T07:32:18.444Z,1548
2016-12-05T07:33:27.943Z,1640
2016-12-05T07:34:37.734Z,1700
2016-12-05T07:35:47.628Z,1788
2016-12-05T07:36:57.098Z,1864
2016-12-05T07:38:06.875Z,1888
2016-12-05T07:39:16.380Z,1912
2016-12-05T07:40:25.903Z,1996
2016-12-05T07:41:35.372Z,2080
2016-12-05T07:42:45.174Z,2156
2016-12-05T07:43:54.972Z,2196
2016-12-05T07:45:04.128Z,2260
2016-12-05T07:46:14.132Z,2264
2016-12-05T07:47:23.639Z,2344
2016-12-05T07:48:33.402Z,2436
2016-12-05T07:49:42.559Z,2484
2016-12-05T07:50:52.048Z,2576
2016-12-05T07:52:01.858Z,2664
2016-12-05T07:53:11.398Z,2792
2016-12-05T07:54:21.167Z,2944
2016-12-05T07:55:30.954Z,3088
2016-12-05T07:56:40.762Z,3172
2016-12-05T07:57:49.951Z,3348
2016-12-05T07:58:59.775Z,3584
2016-12-05T08:00:09.549Z,3640
2016-12-05T08:01:18.717Z,3692
2016-12-05T08:02:28.641Z,3912
2016-12-05T08:03:38.423Z,4136
2016-12-05T08:04:47.899Z,4068
2016-12-05T08:05:57.396Z,4128
2016-12-05T08:07:07.087Z,4348
2016-12-05T08:08:16.987Z,4440
2016-12-05T08:09:26.463Z,4640
2016-12-05T08:10:36.237Z,4676
2016-12-05T08:11:45.759Z,4704
2016-12-05T08:12:55.605Z,4528
2016-12-05T08:14:05.067Z,4604
2016-12-05T08:15:14.723Z,4748
2016-12-05T08:16:24.518Z,5060
2016-12-05T08:17:33.752Z,5084
2016-12-05T08:18:42.902Z,4980
2016-12-05T08:19:52.377Z,5008
2016-12-05T08:21:02.241Z,5112
2016-12-05T08:22:11.700Z,5292
2016-12-05T08:23:21.753Z,5628
2016-12-05T08:24:31.510Z,5716
2016-12-05T08:25:41.048Z,5692
2016-12-05T08:26:51.045Z,5576
2016-12-05T08:28:00.917Z,5424
2016-12-05T08:29:10.715Z,5324
2016-12-05T08:30:20.495Z,5380
2016-12-05T08:31:29.681Z,5532
2016-12-05T08:32:38.875Z,5876
2016-12-05T08:33:48.679Z,6228
2016-12-05T08:34:58.597Z,6400
2016-12-05T08:36:08.054Z,6312
2016-12-05T08:37:17.847Z,6328
2016-12-05T08:38:27.601Z,6384
2016-12-05T08:39:37.424Z,6400
2016-12-05T08:40:47.229Z,6568
2016-12-05T08:42:28.911Z,7092
2016-12-05T08:43:38.685Z,7044
2016-12-05T08:44:48.524Z,6536
2016-12-05T08:45:58.003Z,6660
2016-12-05T08:47:07.796Z,6612
2016-12-05T08:48:17.259Z,6664
2016-12-05T08:49:27.151Z,7320
2016-12-05T08:50:36.627Z,7780
2016-12-05T08:51:46.392Z,7600
2016-12-05T08:52:56.211Z,6776
2016-12-05T08:54:06.016Z,6788
2016-12-05T08:55:15.477Z,6844
2016-12-05T08:56:24.964Z,7032
2016-12-05T08:57:34.778Z,7400
2016-12-05T08:58:44.584Z,7372
2016-12-05T08:59:54.434Z,7796
2016-12-05T09:01:04.301Z,8276
2016-12-05T09:02:13.765Z,8504
2016-12-05T09:03:23.544Z,8700
2016-12-05T09:04:33.029Z,8576
2016-12-05T09:05:42.376Z,8400
2016-12-05T09:06:52.580Z,8464
2016-12-05T09:08:02.587Z,8756
2016-12-05T09:09:12.356Z,8816
2016-12-05T09:10:22.160Z,8836
2016-12-05T09:11:31.964Z,9216
2016-12-05T09:12:41.426Z,9292
2016-12-05T09:13:50.628Z,9128
2016-12-05T09:15:00.396Z,8872
2016-12-05T09:16:10.190Z,8572
2016-12-05T09:17:19.960Z,8428
2016-12-05T09:18:29.759Z,8296
2016-12-05T09:19:39.248Z,7968
2016-12-05T09:20:48.722Z,8252
2016-12-05T09:21:58.554Z,8136
2016-12-05T09:23:08.027Z,7944
2016-12-05T09:24:17.202Z,7828
2016-12-05T09:25:26.987Z,7624
2016-12-05T09:26:36.782Z,7616
2016-12-05T09:27:46.261Z,7640
2016-12-05T09:28:55.717Z,7580
2016-12-05T09:30:05.567Z,7640
2016-12-05T09:31:15.380Z,7908
2016-12-05T09:32:24.966Z,8092
2016-12-05T09:33:34.814Z,8204
2016-12-05T09:34:44.290Z,8232
2016-12-05T09:35:54.063Z,8384
2016-12-05T09:37:03.863Z,8536
2016-12-05T09:38:13.667Z,8664
2016-12-05T09:39:23.180Z,8640
2016-12-05T09:40:32.663Z,8648
2016-12-05T09:41:41.517Z,8808
2016-12-05T09:42:51.013Z,8808
2016-12-05T09:44:00.800Z,9016
2016-12-05T09:45:10.645Z,8948
2016-12-05T09:46:20.431Z,8976
2016-12-05T09:47:29.602Z,9052
2016-12-05T09:48:39.401Z,9208
2016-12-05T09:49:49.239Z,9708
2016-12-05T09:50:58.711Z,9988
2016-12-05T09:52:08.505Z,10200
2016-12-05T09:53:18.282Z,10836
2016-12-05T09:54:27.836Z,14256
2016-12-05T09:55:37.334Z,21760
2016-12-05T09:56:47.097Z,30912
2016-12-05T09:57:56.895Z,36992
2016-12-05T09:59:06.707Z,38080
2016-12-05T10:00:16.532Z,36320
2016-12-05T10:01:26.331Z,35040
2016-12-05T10:02:36.134Z,39296
2016-12-05T10:03:46.000Z,36288
2016-12-05T10:04:55.473Z,33568
2016-12-05T10:06:05.007Z,34464
2016-12-05T10:07:14.824Z,35296
2016-12-05T10:08:24.603Z,37120
2016-12-05T10:09:34.442Z,41056
2016-12-05T10:10:44.249Z,38112
2016-12-05T10:11:53.719Z,35296
2016-12-05T10:13:03.281Z,36640
2016-12-05T10:14:13.217Z,36768
2016-12-05T10:15:22.683Z,41888
2016-12-05T10:16:32.237Z,38688
2016-12-05T10:17:41.499Z,44416
2016-12-05T10:18:51.315Z,39424
2016-12-05T10:20:01.187Z,41248
2016-12-05T10:21:11.036Z,43040
2016-12-05T10:22:20.823Z,39712
2016-12-05T10:23:30.665Z,37632
2016-12-05T10:24:39.835Z,35232
2016-12-05T10:25:49.304Z,34752
2016-12-05T10:26:58.202Z,37344
2016-12-05T10:28:07.447Z,36960
2016-12-05T10:29:17.274Z,42304
2016-12-05T10:30:26.480Z,39360
2016-12-05T10:31:36.009Z,40576
2016-12-05T10:32:45.498Z,40704
2016-12-05T10:33:55.431Z,39392
2016-12-05T10:35:04.925Z,41472
2016-12-05T10:36:14.550Z,40448
2016-12-05T10:37:24.351Z,39872
2016-12-05T10:38:34.152Z,42144
2016-12-05T10:39:43.960Z,41600
2016-12-05T10:40:53.768Z,37824
2016-12-05T10:42:03.344Z,44192
2016-12-05T10:43:12.832Z,36960
2016-12-05T10:44:22.332Z,38496
2016-12-05T10:45:32.248Z,43392
2016-12-05T10:46:42.050Z,39744
2016-12-05T10:47:51.563Z,37632
2016-12-05T10:49:01.361Z,38528
2016-12-05T10:50:11.010Z,38240
2016-12-05T10:51:20.838Z,37824
2016-12-05T10:52:30.393Z,35840
2016-12-05T10:53:40.196Z,37056
2016-12-05T10:54:50.000Z,39424
2016-12-05T10:55:59.806Z,38080
2016-12-05T10:57:09.613Z,39264
2016-12-05T10:58:19.171Z,38688
2016-12-05T10:59:28.958Z,40896
2016-12-05T11:00:38.825Z,42144
2016-12-05T11:01:48.628Z,43040
2016-12-05T11:02:58.442Z,44832
2016-12-05T11:04:07.930Z,42016
2016-12-05T11:05:17.835Z,41920
2016-12-05T11:06:27.339Z,43264
2016-12-05T11:07:36.926Z,40480
2016-12-05T11:08:46.400Z,43296
2016-12-05T11:09:56.210Z,39200
2016-12-05T11:11:05.989Z,41888
2016-12-05T11:12:15.770Z,41088
2016-12-05T11:13:25.576Z,43808
2016-12-05T11:14:35.398Z,48960
2016-12-05T11:15:44.896Z,44352
2016-12-05T11:16:54.785Z,40960
2016-12-05T11:18:04.670Z,42208
2016-12-05T11:19:14.452Z,49088
2016-12-05T11:20:23.972Z,43488
2016-12-05T11:21:33.500Z,42400
2016-12-05T11:22:42.828Z,46272
2016-12-05T11:23:52.631Z,43456
2016-12-05T11:25:02.431Z,41312
2016-12-05T11:26:11.927Z,24608
2016-12-05T11:27:21.105Z,13660
2016-12-05T11:28:30.587Z,12888
2016-12-05T11:29:40.128Z,12120
2016-12-05T11:30:49.628Z,11696
2016-12-05T11:31:59.457Z,11780
2016-12-05T11:33:08.626Z,12292
2016-12-05T11:34:18.158Z,15072
2016-12-05T11:35:27.974Z,20704
2016-12-05T11:36:37.841Z,21280
2016-12-05T11:37:47.705Z,19968
2016-12-05T11:38:57.647Z,16256
2016-12-05T11:40:06.906Z,15552
2016-12-05T11:41:16.070Z,13800
2016-12-05T11:42:25.654Z,13116
2016-12-05T11:43:35.235Z,12788
2016-12-05T11:44:45.191Z,11700
2016-12-05T11:45:55.000Z,11064
2016-12-05T11:47:04.807Z,11512
2016-12-05T11:48:14.299Z,11272
2016-12-05T11:49:24.107Z,10776
2016-12-05T11:50:33.906Z,10712
2016-12-05T11:51:43.129Z,10716
2016-12-05T11:52:52.941Z,10640
2016-12-05T11:54:02.456Z,10300
2016-12-05T11:55:11.979Z,10396
2016-12-05T11:56:21.450Z,9896
2016-12-05T11:57:30.957Z,9736
2016-12-05T11:58:40.880Z,9972
2016-12-05T11:59:50.777Z,9876
2016-12-05T12:00:59.941Z,9760
2016-12-05T12:02:09.439Z,9572
2016-12-05T12:03:18.952Z,9444
2016-12-05T12:04:28.115Z,9340
2016-12-05T12:05:37.908Z,9212
2016-12-05T12:06:47.732Z,9092
2016-12-05T12:07:57.560Z,8992
2016-12-05T12:09:07.452Z,8728
2016-12-05T12:10:17.278Z,8896
2016-12-05T12:11:27.091Z,8512
2016-12-05T12:12:36.889Z,8760
2016-12-05T12:13:46.675Z,8816
2016-12-05T12:14:55.846Z,8752
2016-12-05T12:16:05.647Z,8608
2016-12-05T12:17:15.136Z,8516
2016-12-05T12:18:24.928Z,8508
2016-12-05T12:19:34.725Z,8500
2016-12-05T12:20:44.517Z,8396
2016-12-05T12:21:54.343Z,8240
2016-12-05T12:23:04.132Z,8064
2016-12-05T12:24:12.992Z,8008
2016-12-05T12:25:22.803Z,8000
2016-12-05T12:26:32.349Z,7944
2016-12-05T12:27:42.169Z,7960
2016-12-05T12:28:51.948Z,7828
2016-12-05T12:30:01.734Z,7688
2016-12-05T12:31:10.915Z,7472
2016-12-05T12:32:20.396Z,7292
2016-12-05T12:33:29.889Z,7148
2016-12-05T12:34:39.711Z,7092
2016-12-05T12:35:49.513Z,7076
2016-12-05T12:36:59.312Z,7028
2016-12-05T12:38:08.811Z,6940
2016-12-05T12:39:18.275Z,6920
2016-12-05T12:40:27.774Z,6988
2016-12-05T12:41:37.372Z,7128
2016-12-05T12:42:46.907Z,7168
2016-12-05T12:43:56.733Z,7132
2016-12-05T12:45:06.441Z,7120
2016-12-05T12:46:16.235Z,7060
2016-12-05T12:47:25.836Z,6972
2016-12-05T12:48:35.340Z,6800
2016-12-05T12:49:45.378Z,6632
2016-12-05T12:50:54.903Z,6532
2016-12-05T12:52:04.448Z,6508
2016-12-05T12:53:14.305Z,6472
2016-12-05T12:54:24.097Z,6412
2016-12-05T12:55:33.917Z,6352
2016-12-05T12:56:43.715Z,6320
2016-12-05T12:57:53.519Z,6296
2016-12-05T12:59:03.638Z,6260
2016-12-05T13:00:13.485Z,6228
2016-12-05T13:01:23.162Z,6216
2016-12-05T13:02:32.664Z,6188
2016-12-05T13:03:42.470Z,6124
2016-12-05T13:04:51.962Z,6040
2016-12-05T13:06:01.472Z,5944
2016-12-05T13:07:10.965Z,5864
2016-12-05T13:08:20.503Z,5804
2016-12-05T13:09:30.311Z,5732
2016-12-05T13:10:40.131Z,5684
2016-12-05T13:11:49.977Z,5640
2016-12-05T13:12:59.809Z,5580
2016-12-05T13:14:09.627Z,5512
2016-12-05T13:15:19.667Z,5468
2016-12-05T13:16:29.514Z,5460
2016-12-05T13:17:39.326Z,5416
2016-12-05T13:18:49.441Z,5348
2016-12-05T13:19:59.247Z,5280
2016-12-05T13:21:09.015Z,5236
2016-12-05T13:22:18.538Z,5160
2016-12-05T13:23:28.422Z,5052
2016-12-05T13:24:38.259Z,5004
2016-12-05T13:25:48.152Z,5012
2016-12-05T13:26:57.965Z,5004
2016-12-05T13:28:07.463Z,4952
2016-12-05T13:29:17.017Z,4848
2016-12-05T13:30:26.854Z,4764
2016-12-05T13:31:36.373Z,4724
2016-12-05T13:32:46.195Z,4716
2016-12-05T13:33:56.082Z,4684
2016-12-05T13:35:05.613Z,4580
2016-12-05T13:36:15.549Z,4468
2016-12-05T13:37:24.731Z,4412
2016-12-05T13:38:34.611Z,4400
2016-12-05T13:39:44.215Z,4360
2016-12-05T13:40:54.050Z,4320
2016-12-05T13:42:03.881Z,4232
2016-12-05T13:43:13.700Z,4156
2016-12-05T13:44:23.497Z,4084
2016-12-05T13:45:33.324Z,4004
2016-12-05T13:46:42.854Z,3900
2016-12-05T13:47:52.374Z,3816
2016-12-05T13:49:02.189Z,3776
2016-12-05T13:50:11.693Z,3736
2016-12-05T13:51:21.535Z,3672
2016-12-05T13:52:31.501Z,3624
2016-12-05T13:53:41.343Z,3616
2016-12-05T13:54:51.167Z,3628
2016-12-05T13:56:01.025Z,3396
2016-12-05T13:57:10.514Z,2716
2016-12-05T13:58:20.367Z,3124
2016-12-05T13:59:30.247Z,3228
2016-12-05T14:00:40.085Z,3140
2016-12-05T14:01:49.916Z,3060
2016-12-05T14:02:59.634Z,2972
2016-12-05T14:04:09.431Z,3000
2016-12-05T14:05:19.228Z,2976
2016-12-05T14:06:28.845Z,2968
2016-12-05T14:07:38.120Z,2916
2016-12-05T14:08:47.972Z,2912
2016-12-05T14:09:57.449Z,2968
2016-12-05T14:11:06.777Z,2992
2016-12-05T14:12:16.632Z,2864
2016-12-05T14:13:26.171Z,2816
2016-12-05T14:14:36.024Z,2748
2016-12-05T14:15:45.841Z,2592
2016-12-05T14:16:55.090Z,2484
2016-12-05T14:18:04.611Z,2420
2016-12-05T14:19:14.424Z,2324
2016-12-05T14:20:23.917Z,2156
2016-12-05T14:21:33.427Z,2056
2016-12-05T14:22:43.244Z,2068
2016-12-05T14:23:52.727Z,2064
2016-12-05T14:25:01.887Z,2036
2016-12-05T14:26:11.441Z,2004
2016-12-05T14:27:21.001Z,1988
2016-12-05T14:28:30.540Z,1948
2016-12-05T14:29:40.058Z,1872
2016-12-05T14:30:49.595Z,1792
2016-12-05T14:31:59.389Z,1744
2016-12-05T14:33:08.577Z,1704
2016-12-05T14:34:18.433Z,1648
2016-12-05T14:35:28.252Z,1572
2016-12-05T14:36:37.476Z,1500
2016-12-05T14:37:46.946Z,1444
2016-12-05T14:38:56.822Z,1396
2016-12-05T14:40:06.639Z,1340
2016-12-05T14:41:16.449Z,1272
2016-12-05T14:42:25.635Z,1208
2016-12-05T14:43:34.890Z,1156
2016-12-05T14:44:44.801Z,1108
2016-12-05T14:45:54.598Z,1052
2016-12-05T14:47:04.073Z,1000
2016-12-05T14:48:13.548Z,948
2016-12-05T14:49:23.377Z,896
2016-12-05T14:50:33.164Z,848
2016-12-05T14:51:42.634Z,800
2016-12-05T14:52:52.450Z,752
2016-12-05T14:54:01.948Z,704
2016-12-05T14:55:11.458Z,660
2016-12-05T14:56:20.984Z,616
2016-12-05T14:57:31.014Z,572
2016-12-05T14:58:40.787Z,536
2016-12-05T14:59:50.578Z,496
2016-12-05T15:01:00.369Z,460
2016-12-05T15:02:10.159Z,424
2016-12-05T15:03:19.654Z,392
2016-12-05T15:04:29.480Z,360
2016-12-05T15:05:39.052Z,328
2016-12-05T15:06:48.655Z,300
2016-12-05T15:07:58.479Z,272
2016-12-05T15:09:07.966Z,244
2016-12-05T15:10:17.511Z,224
2016-12-05T15:11:27.344Z,200
2016-12-05T15:12:37.117Z,180
2016-12-05T15:13:46.282Z,160
2016-12-05T15:14:55.560Z,144
2016-12-05T15:16:05.394Z,128
2016-12-05T15:17:14.616Z,108
2016-12-05T15:18:24.561Z,96
2016-12-05T15:19:34.367Z,84
2016-12-05T15:20:43.592Z,72
2016-12-05T15:21:53.415Z,60
2016-12-05T15:23:03.085Z,56
2016-12-05T15:24:12.553Z,44
2016-12-05T15:25:22.406Z,36
2016-12-05T15:26:32.249Z,32
2016-12-05T15:27:42.056Z,24
2016-12-05T15:28:51.921Z,24
2016-12-05T15:30:01.758Z,20
2016-12-05T15:31:11.584Z,12
2016-12-05T15:32:21.106Z,12
2016-12-05T15:33:30.634Z,8
2016-12-05T15:34:40.462Z,8
2016-12-05T15:35:50.290Z,8
2016-12-05T15:37:00.099Z,8
2016-12-05T15:38:09.618Z,4
2016-12-05T15:39:19.107Z,4
2016-12-05T15:40:28.912Z,4
2016-12-05T15:41:38.090Z,0
2016-12-05T15:42:47.952Z,4
2016-12-05T15:43:57.763Z,0
2016-12-05T15:45:07.639Z,4
2016-12-05T15:46:17.446Z,4
2016-12-05T15:47:27.485Z,0
2016-12-05T15:48:37.356Z,0
2016-12-05T15:49:47.213Z,0
2016-12-05T15:50:56.708Z,0
2016-12-05T15:52:06.671Z,0
2016-12-05T15:53:16.469Z,0
2016-12-05T15:54:26.022Z,0
2016-12-05T15:55:35.206Z,0
2016-12-05T15:56:45.042Z,0
2016-12-05T15:57:55.010Z,0
2016-12-05T15:59:04.844Z,0
2016-12-05T16:00:14.382Z,0
2016-12-05T16:01:24.212Z,0
2016-12-05T16:02:34.179Z,0
2016-12-05T16:03:44.121Z,0
2016-12-05T16:04:53.994Z,0
2016-12-05T16:06:03.821Z,0
2016-12-05T16:07:13.711Z,0
2016-12-05T16:08:23.237Z,0
2016-12-05T16:09:33.047Z,0
2016-12-05T16:10:42.933Z,0
2016-12-05T16:11:52.791Z,0